Time;durP1;ratioP1;P1;durP2;ratioP2;P2;SDS_P1;SDS_P2;PMS_P1;PMS_P2;Temp;Humidity;BMP_temperature;BMP_pressure;BME280_temperature;BME280_humidity;BME280_pressure;Samples;Min_cycle;Max_cycle;Signal;HPM_P1;HPM_P2
2021/12/07 00:00:30;;;;;;;4.25;3.30;;;;;;;3.46;91.71;100397.66;4913560;29;20060;-47
2021/12/07 00:03:20;;;;;;;4.88;3.58;;;;;;;3.46;91.75;100397.66;4894667;29;20078;-49
2021/12/07 00:06:08;;;;;;;3.60;2.92;;;;;;;3.47;91.45;100404.72;4910875;29;20477;-49
2021/12/07 00:08:56;;;;;;;4.05;3.22;;;;;;;3.48;91.88;100403.66;4913019;29;20063;-47
2021/12/07 00:11:46;;;;;;;4.38;3.10;;;;;;;3.52;92.36;100404.84;4912758;29;20059;-47
2021/12/07 00:14:38;;;;;;;4.90;3.63;;;;;;;3.49;91.60;100421.44;4913279;29;20238;-47
2021/12/07 00:17:26;;;;;;;5.25;3.22;;;;;;;3.42;92.39;100414.28;4909340;29;20048;-46
2021/12/07 00:20:16;;;;;;;4.53;2.95;;;;;;;3.49;92.63;100410.66;4912902;29;20487;-46
2021/12/07 00:23:08;;;;;;;4.75;3.22;;;;;;;3.48;92.88;100403.66;4913039;29;20067;-51
2021/12/07 00:25:56;;;;;;;5.50;3.88;;;;;;;3.46;92.86;100419.22;4954279;28;20047;-49
2021/12/07 00:28:44;;;;;;;4.15;3.42;;;;;;;3.45;92.75;100417.59;4953292;29;20059;-48
2021/12/07 00:31:40;;;;;;;5.70;4.10;;;;;;;3.44;92.98;100403.31;4952398;28;20062;-48
2021/12/07 00:37:19;;;;;;;7.50;5.32;;;;;;;3.45;93.73;100422.97;4982954;28;20484;-51
2021/12/07 00:40:08;;;;;;;7.70;5.00;;;;;;;3.45;94.04;100420.28;4958805;28;20498;-48
2021/12/07 00:42:56;;;;;;;8.13;5.10;;;;;;;3.46;93.97;100424.59;4953351;28;20413;-49
2021/12/07 00:45:46;;;;;;;7.70;5.35;;;;;;;3.46;94.17;100421.91;4965339;28;20510;-50
2021/12/07 00:48:34;;;;;;;9.20;5.72;;;;;;;3.44;94.33;100432.09;4963881;28;20524;-47
2021/12/07 00:51:21;;;;;;;7.43;5.35;;;;;;;3.47;94.60;100420.88;4927854;29;20051;-44
2021/12/07 00:54:10;;;;;;;8.75;5.90;;;;;;;3.48;94.74;100435.97;4951735;29;20047;-46
2021/12/07 00:56:58;;;;;;;7.75;5.43;;;;;;;3.47;94.70;100440.53;4951757;29;20043;-46
2021/12/07 00:59:39;;;;;;;8.80;5.75;;;;;;;3.46;95.28;100440.75;4970855;28;20398;-52
2021/12/07 01:02:27;;;;;;;8.05;5.50;;;;;;;3.47;94.76;100467.47;4952317;28;20066;-47
2021/12/07 01:05:21;;;;;;;9.48;6.07;;;;;;;3.44;95.08;100472.47;4952029;28;20568;-49
2021/12/07 01:08:18;;;;;;;9.63;5.68;;;;;;;3.34;95.08;100481.97;4960023;28;20127;-44
2021/12/07 01:26:39;;;;;;;9.02;5.78;;;;;;;3.45;96.56;100487.59;4953223;29;20055;-49
2021/12/07 01:29:27;;;;;;;10.10;6.45;;;;;;;3.46;96.96;100486.53;4954210;28;20138;-51
2021/12/07 01:35:45;;;;;;;10.65;6.72;;;;;;;3.51;96.86;100497.44;4910157;29;20103;-45
2021/12/07 01:47:51;;;;;;;12.60;6.30;;;;;;;3.52;97.75;100517.97;4902688;29;20079;-46
2021/12/07 01:59:42;;;;;;;11.93;6.03;;;;;;;3.62;97.96;100529.00;4902527;29;20151;-51
2021/12/07 02:02:30;;;;;;;10.98;6.15;;;;;;;3.61;98.65;100527.38;4915607;29;20060;-50
2021/12/07 02:05:19;;;;;;;11.20;6.38;;;;;;;3.65;98.26;100531.22;4901994;29;20143;-46
2021/12/07 02:08:07;;;;;;;11.40;6.20;;;;;;;3.65;98.33;100531.22;4888628;29;20577;-46
2021/12/07 02:10:59;;;;;;;10.05;5.93;;;;;;;3.66;98.07;100540.97;4901890;29;20515;-46
2021/12/07 02:16:36;;;;;;;11.82;6.22;;;;;;;3.68;98.81;100555.03;4967746;28;20242;-47
2021/12/07 02:19:25;;;;;;;9.48;5.78;;;;;;;3.69;98.80;100556.66;4956591;28;20055;-45
2021/12/07 02:22:12;;;;;;;10.20;6.00;;;;;;;3.70;98.81;100563.69;4967747;28;20422;-49
2021/12/07 02:25:09;;;;;;;13.45;5.82;;;;;;;3.71;98.81;100559.97;4954351;28;20051;-46
2021/12/07 02:27:57;;;;;;;13.75;5.97;;;;;;;3.71;98.84;100565.34;4954714;29;20055;-45
2021/12/07 02:30:45;;;;;;;13.02;5.85;;;;;;;3.72;99.15;100564.28;4955597;28;20102;-45
2021/12/07 02:33:33;;;;;;;14.85;6.13;;;;;;;3.74;99.40;100566.75;4956268;28;20042;-45
2021/12/07 02:36:22;;;;;;;13.80;5.97;;;;;;;3.75;99.12;100577.31;4953759;29;20058;-45
2021/12/07 02:39:12;;;;;;;11.15;5.68;;;;;;;3.74;98.87;100575.66;4953901;29;20047;-46
2021/12/07 02:42:02;;;;;;;13.02;5.50;;;;;;;3.73;99.33;100584.81;4957862;28;20185;-46
2021/12/07 02:44:50;;;;;;;14.98;6.07;;;;;;;3.74;99.81;100586.44;4968349;28;20059;-45
2021/12/07 02:47:37;;;;;;;15.85;5.20;;;;;;;3.74;99.62;100583.75;4954135;28;20832;-45
2021/12/07 02:50:28;;;;;;;14.43;5.68;;;;;;;3.74;100.00;100591.81;4954252;28;20051;-46
2021/12/07 02:53:21;;;;;;;17.50;5.25;;;;;;;3.75;100.00;100596.19;4954404;28;20489;-45
2021/12/07 02:56:10;;;;;;;13.38;5.38;;;;;;;3.77;100.00;100599.44;4980112;28;20059;-46
2021/12/07 02:59:02;;;;;;;15.15;5.57;;;;;;;3.79;100.00;100612.69;4954790;28;20079;-48
2021/12/07 03:02:04;;;;;;;13.55;5.07;;;;;;;3.77;100.00;100610.22;4955455;28;20055;-46
2021/12/07 03:05:04;;;;;;;13.70;4.80;;;;;;;3.78;100.00;100614.59;4956190;28;20043;-45
2021/12/07 03:26:30;;;;;;;15.00;4.38;;;;;;;3.82;100.00;100647.28;4952489;28;20054;-48
2021/12/07 03:29:18;;;;;;;16.30;4.93;;;;;;;3.82;100.00;100653.50;4950563;29;20073;-48
2021/12/07 03:32:07;;;;;;;15.93;4.63;;;;;;;3.83;100.00;100641.66;4958104;28;20043;-51
2021/12/07 03:34:55;;;;;;;13.18;4.03;;;;;;;3.84;100.00;100639.78;4951602;28;20086;-51
2021/12/07 03:37:43;;;;;;;16.42;4.85;;;;;;;3.87;100.00;100643.91;4979901;28;20062;-49
2021/12/07 03:40:31;;;;;;;18.02;4.93;;;;;;;3.88;100.00;100650.94;4952190;29;20510;-50
2021/12/07 03:43:19;;;;;;;14.27;4.20;;;;;;;3.82;100.00;100661.59;4954983;28;20051;-49
2021/12/07 03:46:08;;;;;;;15.80;4.65;;;;;;;3.81;100.00;100670.72;4953189;29;20043;-49
2021/12/07 03:48:55;;;;;;;14.38;4.65;;;;;;;3.83;100.00;100676.69;4965675;28;20051;-53
2021/12/07 03:51:44;;;;;;;14.95;3.80;;;;;;;3.84;100.00;100678.34;4950891;28;20053;-49
2021/12/07 03:54:32;;;;;;;13.77;4.38;;;;;;;3.84;100.00;100683.72;4955863;28;20047;-52
2021/12/07 03:57:20;;;;;;;17.17;4.38;;;;;;;3.84;100.00;100686.41;4953056;29;20568;-51
2021/12/07 04:00:12;;;;;;;15.80;4.20;;;;;;;3.85;100.00;100689.97;4954347;29;20055;-53
2021/12/07 04:03:07;;;;;;;13.07;4.13;;;;;;;3.81;100.00;100694.97;4959549;28;20126;-52
2021/12/07 04:05:56;;;;;;;14.40;4.55;;;;;;;3.80;100.00;100693.34;4961433;28;20055;-51
2021/12/07 04:08:46;;;;;;;13.38;3.90;;;;;;;3.80;100.00;100692.47;4952179;28;20051;-52
2021/12/07 04:11:35;;;;;;;14.95;3.90;;;;;;;3.80;100.00;100692.47;4960248;28;20128;-48
2021/12/07 04:14:23;;;;;;;14.45;4.65;;;;;;;3.81;100.00;100697.66;4955799;28;20115;-51
2021/12/07 04:17:11;;;;;;;15.80;4.40;;;;;;;3.79;100.00;100705.16;4953214;28;20055;-51
2021/12/07 04:19:59;;;;;;;17.23;4.40;;;;;;;3.79;100.00;100702.44;4941575;29;20485;-48
2021/12/07 04:22:47;;;;;;;14.15;4.43;;;;;;;3.81;100.00;100708.44;4949639;29;20043;-48
2021/12/07 04:25:35;;;;;;;14.82;3.90;;;;;;;3.82;100.00;100718.19;4954748;28;20051;-49
2021/12/07 04:28:23;;;;;;;16.00;3.92;;;;;;;3.80;100.00;100717.59;4942250;29;20128;-52
2021/12/07 04:31:11;;;;;;;12.38;3.83;;;;;;;3.79;100.00;100707.84;4953335;28;20059;-53
2021/12/07 04:33:58;;;;;;;12.95;3.75;;;;;;;3.81;100.00;100710.31;4955373;28;20059;-53
2021/12/07 04:36:46;;;;;;;16.48;4.20;;;;;;;3.81;100.00;100711.13;4948762;28;20043;-50
2021/12/07 04:39:34;;;;;;;14.02;3.75;;;;;;;3.80;100.00;100720.28;4952903;29;20100;-50
2021/12/07 04:42:21;;;;;;;14.50;4.30;;;;;;;3.80;100.00;100728.38;4953705;29;20074;-51
2021/12/07 04:45:11;;;;;;;15.30;3.70;;;;;;;3.81;100.00;100727.31;4954378;28;20480;-48
2021/12/07 04:48:28;;;;;;;14.07;3.47;;;;;;;3.84;100.00;100731.41;4951675;29;20050;-52
2021/12/07 05:00:20;;;;;;;13.48;4.28;;;;;;;3.78;100.00;100730.47;4958046;28;20043;-47
2021/12/07 05:03:12;;;;;;;14.13;4.03;;;;;;;3.79;100.00;100736.66;4953264;29;20160;-50
2021/12/07 05:05:47;;;;;;;12.52;3.72;;;;;;;3.79;100.00;100761.72;4953203;28;20043;-49
2021/12/07 05:08:48;;;;;;;12.88;3.95;;;;;;;3.79;100.00;100745.56;4952960;29;20051;-48
2021/12/07 05:15:01;;;;;;;13.88;3.92;;;;;;;3.79;100.00;100767.13;4910117;29;20066;-51
2021/12/07 05:18:08;;;;;;;16.00;4.88;;;;;;;3.79;100.00;100777.91;4899186;29;20056;-45
2021/12/07 05:24:22;;;;;;;;;;;;;;;3.83;100.00;100778.28;4916655;29;20059;-50
2021/12/07 05:39:34;;;;;;;11.82;3.85;;;;;;;3.80;99.98;100787.66;4913587;29;20108;-52
2021/12/07 05:42:23;;;;;;;13.68;3.70;;;;;;;3.80;100.00;100801.13;4916044;29;20151;-45
2021/12/07 05:45:18;;;;;;;13.07;3.67;;;;;;;3.80;100.00;100795.75;4915425;29;20040;-49
2021/12/07 05:47:52;;;;;;;14.55;4.10;;;;;;;3.81;100.00;100807.34;4915906;29;20059;-52
2021/12/07 05:50:41;;;;;;;12.93;3.60;;;;;;;3.80;100.00;100819.16;4919665;29;20055;-49
2021/12/07 05:53:28;;;;;;;14.93;4.25;;;;;;;3.80;100.00;100822.69;4956073;29;20054;-48
2021/12/07 05:56:17;;;;;;;13.30;3.88;;;;;;;3.79;100.00;100826.41;4956098;28;20137;-48
2021/12/07 05:59:05;;;;;;;12.40;4.32;;;;;;;3.80;99.92;100835.31;4955944;28;20474;-49
2021/12/07 06:01:52;;;;;;;8.27;3.00;;;;;;;3.79;99.99;100842.59;4956150;29;20051;-47
2021/12/07 06:04:40;;;;;;;15.57;4.00;;;;;;;3.79;99.39;100836.38;4955981;29;20525;-49
2021/12/07 06:07:28;;;;;;;14.45;3.50;;;;;;;3.78;99.96;100842.81;4955863;29;20047;-49
2021/12/07 06:10:15;;;;;;;14.68;3.85;;;;;;;3.77;99.84;100852.75;4958349;28;20111;-49
2021/12/07 06:13:04;;;;;;;14.02;4.05;;;;;;;3.77;99.79;100850.06;4951821;28;20051;-51
2021/12/07 06:15:52;;;;;;;10.95;3.42;;;;;;;3.78;100.00;100851.72;4955612;29;20054;-49
2021/12/07 06:18:39;;;;;;;10.55;3.55;;;;;;;3.79;99.98;100856.06;4956576;28;20047;-49
2021/12/07 06:21:28;;;;;;;12.45;4.15;;;;;;;3.80;99.57;100846.94;4955683;28;20055;-51
2021/12/07 06:24:16;;;;;;;9.65;3.65;;;;;;;3.80;99.65;100844.25;4954394;29;20098;-49
2021/12/07 06:27:04;;;;;;;13.57;3.70;;;;;;;3.81;99.47;100840.50;4955976;28;20051;-49
2021/12/07 06:29:52;;;;;;;11.40;3.75;;;;;;;3.80;99.50;100838.84;4956198;28;20409;-48
2021/12/07 06:32:39;;;;;;;11.98;3.67;;;;;;;3.80;99.07;100844.25;4955360;29;20494;-48
2021/12/07 06:35:27;;;;;;;10.20;3.60;;;;;;;3.76;99.17;100845.72;4959522;28;20197;-48
2021/12/07 06:38:17;;;;;;;15.38;3.58;;;;;;;3.75;98.70;100844.09;4955243;29;20055;-49
2021/12/07 06:41:05;;;;;;;10.77;2.90;;;;;;;3.75;99.37;100845.94;4956331;28;20051;-48
2021/12/07 06:43:53;;;;;;;9.93;3.00;;;;;;;3.76;99.34;100847.59;4945407;29;20450;-49
2021/12/07 06:46:40;;;;;;;8.90;3.08;;;;;;;3.75;100.00;100841.41;4955296;29;20066;-49
2021/12/07 06:49:28;;;;;;;8.45;2.85;;;;;;;3.75;100.00;100848.63;4955322;28;20169;-46
2021/12/07 06:52:16;;;;;;;10.25;3.47;;;;;;;3.74;100.00;100850.50;4943123;29;20055;-50
2021/12/07 06:55:05;;;;;;;15.43;4.43;;;;;;;3.67;99.13;100857.00;4964548;28;20055;-54
2021/12/07 06:57:53;;;;;;;15.05;4.22;;;;;;;3.56;98.92;100861.25;4946610;29;20512;-51
2021/12/07 07:00:40;;;;;;;14.88;4.43;;;;;;;3.51;98.78;100877.25;4960982;28;20049;-51
2021/12/07 07:03:28;;;;;;;15.25;4.28;;;;;;;3.48;98.99;100858.84;4964817;28;20054;-51
2021/12/07 07:06:16;;;;;;;12.77;3.35;;;;;;;3.64;100.00;100866.38;4955194;29;20086;-55
2021/12/07 07:09:05;;;;;;;13.82;3.42;;;;;;;3.69;100.00;100874.59;4954565;29;20121;-55
2021/12/07 07:11:34;;;;;;;9.85;3.53;;;;;;;3.71;100.00;100871.69;4955466;28;20071;-56
2021/12/07 07:14:21;;;;;;;13.77;4.05;;;;;;;3.67;100.00;100882.09;4945807;28;20055;-53
2021/12/07 07:17:09;;;;;;;14.20;4.22;;;;;;;3.68;100.00;100878.38;4951107;28;20130;-49
2021/12/07 07:20:05;;;;;;;14.38;3.40;;;;;;;3.68;100.00;100890.97;4950234;28;20486;-53
2021/12/07 07:22:54;;;;;;;12.10;3.97;;;;;;;3.74;100.00;100888.25;4941582;29;20117;-54
2021/12/07 07:25:41;;;;;;;11.35;3.97;;;;;;;3.73;100.00;100870.44;4268367;28;10001361;-51
2021/12/07 07:28:30;;;;;;;13.38;4.50;;;;;;;3.70;100.00;100870.03;4951937;29;20051;-51
2021/12/07 07:31:18;;;;;;;13.85;5.18;;;;;;;3.64;100.00;100874.44;4952631;28;20073;-51
2021/12/07 07:34:05;;;;;;;13.15;4.40;;;;;;;3.59;100.00;100875.09;4958381;28;20401;-52
2021/12/07 07:36:53;;;;;;;16.30;4.60;;;;;;;3.58;99.91;100884.25;4964395;28;20051;-53
2021/12/07 07:39:41;;;;;;;18.55;4.65;;;;;;;3.57;99.95;100884.47;4951404;29;20047;-54
2021/12/07 07:42:29;;;;;;;14.68;4.72;;;;;;;3.61;100.00;100888.38;4952479;28;20059;-52
2021/12/07 07:45:37;;;;;;;13.18;4.35;;;;;;;3.62;100.00;100895.41;4950369;29;20059;-53
2021/12/07 07:48:24;;;;;;;15.27;4.55;;;;;;;3.66;100.00;100895.78;4950207;28;20047;-49
2021/12/07 07:51:13;;;;;;;15.05;4.85;;;;;;;3.63;99.88;100897.03;4949846;28;20047;-54
2021/12/07 07:54:01;;;;;;;12.20;4.55;;;;;;;3.66;100.00;100902.00;4961224;28;20039;-49
2021/12/07 07:56:49;;;;;;;13.07;3.58;;;;;;;3.70;100.00;100887.03;4951112;29;20054;-51
2021/12/07 07:59:38;;;;;;;11.55;3.58;;;;;;;3.77;100.00;100893.19;4951080;29;20122;-50
2021/12/07 08:02:26;;;;;;;15.35;4.28;;;;;;;3.94;100.00;100876.44;4949697;28;20062;-51
2021/12/07 08:05:13;;;;;;;14.77;4.15;;;;;;;4.02;100.00;100862.69;4946329;28;20138;-52
2021/12/07 08:08:00;;;;;;;16.10;4.05;;;;;;;4.02;100.00;100870.78;4951510;28;20417;-50
2021/12/07 08:10:48;;;;;;;15.70;4.88;;;;;;;4.03;100.00;100872.41;4955646;28;20060;-52
2021/12/07 08:13:38;;;;;;;16.13;5.63;;;;;;;3.92;100.00;100879.38;4956705;28;20068;-53
2021/12/07 08:16:26;;;;;;;15.43;5.00;;;;;;;3.91;100.00;100872.31;4943649;29;20055;-50
2021/12/07 08:19:14;;;;;;;16.13;4.65;;;;;;;3.94;100.00;100877.25;4952880;29;20501;-49
2021/12/07 08:22:02;;;;;;;15.57;4.72;;;;;;;4.03;100.00;100877.81;4961296;28;20159;-50
2021/12/07 08:24:51;;;;;;;10.82;3.63;;;;;;;4.01;100.00;100874.50;4951255;29;20055;-48
2021/12/07 08:27:39;;;;;;;17.50;4.50;;;;;;;3.97;100.00;100881.38;4952918;29;20054;-50
2021/12/07 08:30:27;;;;;;;15.57;4.75;;;;;;;4.02;100.00;100885.06;4953346;29;20126;-49
2021/12/07 08:33:15;;;;;;;16.90;5.47;;;;;;;3.90;100.00;100888.75;4957238;28;20050;-49
2021/12/07 08:36:04;;;;;;;19.98;5.82;;;;;;;3.75;100.00;100881.81;4959552;28;20466;-48
2021/12/07 08:38:52;;;;;;;17.13;5.63;;;;;;;3.62;100.00;100879.22;4952668;29;20055;-52
2021/12/07 08:41:39;;;;;;;18.20;5.60;;;;;;;3.59;100.00;100888.56;4952693;29;20083;-51
2021/12/07 08:44:27;;;;;;;13.80;5.00;;;;;;;3.61;100.00;100891.88;4953870;28;20074;-49
2021/12/07 08:47:15;;;;;;;14.80;5.38;;;;;;;3.64;100.00;100896.00;4941790;29;20047;-49
2021/12/07 08:50:25;;;;;;;16.95;5.07;;;;;;;3.68;100.00;100894.53;4957019;28;20056;-48
2021/12/07 08:53:16;;;;;;;13.90;4.88;;;;;;;3.72;100.00;100895.72;4956416;28;20051;-53
2021/12/07 09:02:19;;;;;;;15.18;5.15;;;;;;;3.77;100.00;100893.19;4957374;28;20142;-49
2021/12/07 09:05:07;;;;;;;15.50;4.75;;;;;;;3.81;100.00;100901.66;4956896;29;20493;-48
2021/12/07 09:07:55;;;;;;;16.90;4.90;;;;;;;3.78;100.00;100888.63;4957515;28;20062;-50
2021/12/07 09:10:43;;;;;;;13.10;4.75;;;;;;;3.76;100.00;100886.16;4956592;29;20059;-51
2021/12/07 09:13:31;;;;;;;14.02;5.03;;;;;;;3.77;100.00;100877.00;4956526;29;20085;-48
2021/12/07 09:16:20;;;;;;;17.85;5.63;;;;;;;3.78;100.00;100878.69;4957946;28;20157;-49
2021/12/07 09:19:08;;;;;;;16.08;5.07;;;;;;;3.78;100.00;100878.69;4954860;29;20718;-51
2021/12/07 09:21:56;;;;;;;15.40;5.50;;;;;;;3.82;100.00;100877.19;4956160;28;20055;-47
2021/12/07 09:25:04;;;;;;;16.33;4.90;;;;;;;3.83;100.00;100891.50;4956718;28;20110;-52
2021/12/07 09:27:52;;;;;;;13.82;4.72;;;;;;;3.83;100.00;100891.50;4944014;29;20051;-52
2021/12/07 09:30:40;;;;;;;15.48;5.38;;;;;;;3.87;100.00;100886.47;4956451;28;20054;-47
2021/12/07 09:33:30;;;;;;;13.63;4.65;;;;;;;3.91;100.00;100887.69;4956748;28;20082;-46
2021/12/07 09:36:19;;;;;;;16.00;4.90;;;;;;;3.92;100.00;100894.72;4956762;28;20059;-48
2021/12/07 09:39:09;;;;;;;16.35;4.80;;;;;;;3.98;100.00;100893.84;4948091;28;20058;-47
2021/12/07 09:41:56;;;;;;;18.58;4.90;;;;;;;4.15;100.00;100889.50;4956531;29;20051;-47
2021/12/07 09:44:44;;;;;;;14.10;4.93;;;;;;;4.18;100.00;100894.44;4956440;29;20127;-46
2021/12/07 09:47:31;;;;;;;13.50;4.43;;;;;;;4.19;100.00;100890.72;4956211;29;20371;-47
2021/12/07 09:50:22;;;;;;;16.10;4.82;;;;;;;4.17;100.00;100882.00;4959459;28;20426;-48
2021/12/07 09:53:11;;;;;;;14.55;4.63;;;;;;;4.21;100.00;100880.53;4956258;29;20382;-46
2021/12/07 09:56:00;;;;;;;17.65;5.05;;;;;;;4.36;100.00;100882.03;4954950;28;21403;-46
2021/12/07 09:58:50;;;;;;;13.40;4.40;;;;;;;4.29;100.00;100892.06;4944091;29;20051;-49
2021/12/07 10:01:41;;;;;;;15.35;4.47;;;;;;;4.31;100.00;100898.06;4955202;29;20071;-51
2021/12/07 10:04:29;;;;;;;14.82;5.13;;;;;;;4.53;100.00;100885.75;4955422;28;20057;-47
2021/12/07 10:07:18;;;;;;;17.33;5.82;;;;;;;4.51;100.00;100874.34;4954942;29;20170;-46
2021/12/07 10:09:49;;;;;;;16.45;4.80;;;;;;;4.49;100.00;100874.56;4986298;28;20051;-53
2021/12/07 10:12:37;;;;;;;12.65;4.38;;;;;;;4.60;100.00;100872.19;4945668;29;20055;-47
2021/12/07 10:15:25;;;;;;;12.85;4.43;;;;;;;4.66;100.00;100880.16;4956142;28;20390;-48
2021/12/07 10:18:06;;;;;;;12.32;4.15;;;;;;;4.91;100.00;100877.38;4968629;28;20146;-48
2021/12/07 10:21:16;;;;;;;14.85;4.65;;;;;;;5.26;100.00;100870.41;4944599;28;20052;-53
2021/12/07 10:24:09;;;;;;;12.35;4.40;;;;;;;5.03;100.00;100869.31;4954872;29;20051;-51
2021/12/07 10:26:56;;;;;;;14.00;4.10;;;;;;;5.33;100.00;100857.63;4958893;28;20059;-48
2021/12/07 10:29:44;;;;;;;11.73;3.80;;;;;;;4.98;100.00;100858.38;4952487;28;20055;-49
2021/12/07 10:32:31;;;;;;;15.00;5.00;;;;;;;4.95;100.00;100866.91;4959308;28;20043;-50
2021/12/07 10:35:36;;;;;;;13.65;4.53;;;;;;;5.00;100.00;100863.53;4981564;28;20425;-49
2021/12/07 10:38:24;;;;;;;15.20;4.22;;;;;;;5.31;100.00;100854.34;4954808;29;20059;-51
2021/12/07 10:41:15;;;;;;;13.05;4.10;;;;;;;5.07;100.00;100853.44;4954683;29;20082;-48
2021/12/07 10:44:06;;;;;;;11.55;4.30;;;;;;;4.79;100.00;100854.09;4954975;29;20131;-51
2021/12/07 10:46:58;;;;;;;12.68;4.32;;;;;;;4.64;100.00;100841.81;4967088;28;20050;-54
2021/12/07 10:49:51;;;;;;;;;;;;;;;5.23;100.00;100833.88;4954461;28;20573;-49
2021/12/07 10:52:42;;;;;;;16.27;4.57;;;;;;;5.76;100.00;100830.28;4963370;28;19934;-48
2021/12/07 10:55:30;;;;;;;12.50;4.05;;;;;;;5.81;100.00;100818.75;4955407;28;20043;-50
2021/12/07 10:58:18;;;;;;;13.82;3.95;;;;;;;5.50;100.00;100809.94;4958228;28;20127;-53
2021/12/07 11:01:05;;;;;;;13.27;4.43;;;;;;;5.71;100.00;100810.41;4972746;28;20395;-49
2021/12/07 11:04:17;;;;;;;10.55;3.50;;;;;;;6.03;100.00;100807.34;4979317;28;20047;-50
2021/12/07 11:07:10;;;;;;;15.27;4.97;;;;;;;6.60;100.00;100799.31;4952091;28;20498;-51
2021/12/07 11:10:30;;;;;;;17.73;4.80;;;;;;;5.89;100.00;100801.34;4954354;29;20059;-51
2021/12/07 11:13:22;;;;;;;19.38;5.82;;;;;;;5.31;100.00;100776.00;4964404;28;20066;-49
2021/12/07 11:16:13;;;;;;;11.75;4.15;;;;;;;5.16;100.00;100770.22;4945282;28;20066;-47
2021/12/07 11:19:00;;;;;;;11.50;3.70;;;;;;;5.38;100.00;100768.59;4952578;29;20062;-49
2021/12/07 11:21:50;;;;;;;12.10;3.72;;;;;;;5.82;100.00;100779.00;4954283;29;20062;-50
2021/12/07 11:24:45;;;;;;;13.30;4.50;;;;;;;5.80;100.00;100775.72;4955029;28;20070;-51
2021/12/07 11:30:40;;;;;;;14.90;4.18;;;;;;;5.68;100.00;100759.53;4953548;29;20302;-49
2021/12/07 11:33:27;;;;;;;12.07;3.87;;;;;;;5.80;100.00;100764.91;4267918;28;9999956;-53
2021/12/07 11:36:21;;;;;;;11.25;4.43;;;;;;;5.74;100.00;100767.50;4952423;28;20844;-47
2021/12/07 11:39:32;;;;;;;10.50;3.72;;;;;;;5.63;100.00;100767.50;4943472;29;20059;-51
2021/12/07 11:42:25;;;;;;;11.48;4.13;;;;;;;5.66;100.00;100767.06;4953543;28;20047;-50
2021/12/07 11:45:22;;;;;;;11.70;3.63;;;;;;;5.78;100.00;100767.88;4951754;28;20074;-52
2021/12/07 11:48:10;;;;;;;12.45;3.53;;;;;;;5.78;100.00;100765.16;4950594;29;20058;-50
2021/12/07 11:50:57;;;;;;;11.10;3.03;;;;;;;6.02;100.00;100757.03;4950881;29;20468;-49
2021/12/07 11:53:45;;;;;;;11.68;3.78;;;;;;;6.55;100.00;100748.59;4974848;28;20051;-52
2021/12/07 11:56:34;;;;;;;8.05;3.03;;;;;;;6.56;100.00;100744.81;4977580;28;20066;-48
2021/12/07 11:59:21;;;;;;;12.55;3.53;;;;;;;6.49;100.00;100748.72;4951185;29;20043;-49
2021/12/07 12:02:09;;;;;;;7.78;3.00;;;;;;;6.44;100.00;100744.03;4976598;28;20513;-48
2021/12/07 12:04:57;;;;;;;12.55;4.28;;;;;;;6.62;100.00;100732.19;4951528;29;20573;-48
2021/12/07 12:07:46;;;;;;;9.45;3.70;;;;;;;6.46;100.00;100730.28;4951575;28;20051;-49
2021/12/07 12:10:39;;;;;;;8.02;3.33;;;;;;;6.11;100.00;100728.53;4950567;28;20079;-51
2021/12/07 12:14:06;;;;;;;9.23;3.40;;;;;;;6.05;100.00;100718.69;4951516;29;20058;-48
2021/12/07 12:17:14;;;;;;;10.23;3.55;;;;;;;6.28;100.00;100718.59;4951128;28;20058;-51
2021/12/07 12:20:38;;;;;;;9.82;3.63;;;;;;;6.16;100.00;100705.13;4977723;28;20045;-50
2021/12/07 12:23:52;;;;;;;10.15;3.92;;;;;;;6.01;100.00;100702.09;4950127;29;20122;-51
2021/12/07 12:26:40;;;;;;;9.30;3.10;;;;;;;6.02;100.00;100703.75;4942543;28;20047;-48
2021/12/07 12:29:29;;;;;;;13.70;4.40;;;;;;;6.58;100.00;100685.03;4950286;28;20090;-49
2021/12/07 12:32:36;;;;;;;9.82;3.80;;;;;;;6.86;100.00;100681.44;4971016;28;20454;-44
2021/12/07 12:36:02;;;;;;;7.05;2.55;;;;;;;6.61;100.00;100679.09;4943641;29;20466;-49
2021/12/07 12:39:06;;;;;;;12.93;4.53;;;;;;;6.23;100.00;100672.53;4896567;29;20059;-49
2021/12/07 12:42:00;;;;;;;13.82;3.53;;;;;;;6.08;100.00;100670.31;4910180;29;20106;-49
2021/12/07 12:44:51;;;;;;;12.48;4.13;;;;;;;5.76;100.00;100675.38;4909365;29;20084;-49
2021/12/07 12:47:40;;;;;;;17.67;3.58;;;;;;;5.55;100.00;100677.63;4892693;29;20440;-51
2021/12/07 12:50:27;;;;;;;32.58;5.53;;;;;;;5.91;100.00;100664.84;4897378;29;20060;-49
2021/12/07 12:53:31;;;;;;;11.63;3.70;;;;;;;5.76;100.00;100656.44;4910082;29;20045;-49
2021/12/07 12:56:20;;;;;;;12.73;4.50;;;;;;;5.68;100.00;100648.72;4909720;29;20078;-50
2021/12/07 12:59:11;;;;;;;15.48;4.68;;;;;;;5.41;100.00;100637.59;4907667;29;20063;-52
2021/12/07 13:01:48;;;;;;;12.40;4.10;;;;;;;5.58;100.00;100633.13;4910286;29;20060;-62
2021/12/07 13:04:36;;;;;;;12.98;4.25;;;;;;;5.51;100.00;100617.03;4910425;29;20834;-48
2021/12/07 13:07:27;;;;;;;14.02;4.43;;;;;;;5.31;100.00;100606.59;4910091;29;20507;-57
2021/12/07 13:10:15;;;;;;;12.55;4.20;;;;;;;5.18;100.00;100589.88;4941907;28;20417;-50
2021/12/07 13:13:24;;;;;;;12.98;4.32;;;;;;;5.05;100.00;100580.97;4950862;29;20094;-54
2021/12/07 13:16:14;;;;;;;13.43;4.28;;;;;;;5.05;100.00;100583.66;4953067;29;20047;-55
2021/12/07 13:19:06;;;;;;;15.20;4.35;;;;;;;5.06;100.00;100571.78;4952840;28;20047;-55
2021/12/07 13:21:54;;;;;;;13.50;4.15;;;;;;;5.03;100.00;100571.47;4954554;28;20157;-56
2021/12/07 13:24:42;;;;;;;17.27;3.80;;;;;;;4.99;98.81;100560.31;4944992;28;20058;-58
2021/12/07 13:27:29;;;;;;;14.35;3.90;;;;;;;4.98;99.93;100547.88;4952209;29;20062;-53
2021/12/07 13:30:18;;;;;;;13.13;3.80;;;;;;;5.02;97.65;100549.03;4952134;28;20066;-51
2021/12/07 13:33:15;;;;;;;27.17;6.32;;;;;;;5.09;99.42;100527.28;4947230;28;20058;-53
2021/12/07 13:36:29;;;;;;;43.33;6.00;;;;;;;5.11;97.48;100519.78;4957416;28;20051;-55
2021/12/07 13:39:18;;;;;;;50.97;7.53;;;;;;;5.10;96.67;100510.06;4945397;28;20047;-55
2021/12/07 13:42:16;;;;;;;14.40;4.35;;;;;;;5.11;96.49;100520.59;4964478;28;20220;-58
2021/12/07 13:45:06;;;;;;;;;;;;;;;5.08;97.04;100521.06;4958081;28;20047;-51
2021/12/07 13:47:54;;;;;;;32.45;5.43;;;;;;;5.07;96.50;100514.03;4956795;28;19989;-51
2021/12/07 13:50:41;;;;;;;25.50;5.47;;;;;;;5.06;95.74;100517.78;4956143;28;20506;-57
2021/12/07 13:53:29;;;;;;;15.50;4.20;;;;;;;5.05;95.67;100513.47;4961053;28;20050;-55
2021/12/07 13:56:17;;;;;;;19.05;4.30;;;;;;;5.05;94.77;100510.75;4961762;28;20059;-55
2021/12/07 13:59:13;;;;;;;14.00;4.38;;;;;;;5.05;94.85;100505.38;4955194;29;20149;-58
2021/12/07 14:02:01;;;;;;;12.32;3.45;;;;;;;5.04;94.57;100498.31;4955801;28;20043;-53
2021/12/07 14:04:49;;;;;;;14.98;3.92;;;;;;;5.03;94.37;100491.28;4957574;28;20121;-48
2021/12/07 14:07:37;;;;;;;14.80;4.18;;;;;;;5.04;94.32;100492.91;4944096;29;20059;-48
2021/12/07 14:10:34;;;;;;;16.02;4.38;;;;;;;5.05;94.78;100483.75;4955537;28;20055;-56
2021/12/07 14:13:21;;;;;;;15.07;4.00;;;;;;;5.08;94.80;100475.16;4955555;28;20102;-58
2021/12/07 14:16:29;;;;;;;15.13;4.05;;;;;;;5.09;94.11;100466.00;4991316;28;20054;-56
2021/12/07 14:19:18;;;;;;;12.00;4.47;;;;;;;5.08;93.94;100461.66;4954255;28;20063;-51
2021/12/07 14:22:05;;;;;;;14.27;4.20;;;;;;;5.07;93.42;100451.91;4950731;29;20102;-52
2021/12/07 14:24:53;;;;;;;21.40;5.13;;;;;;;5.06;93.03;100450.28;4982406;28;20052;-54
2021/12/07 14:27:44;;;;;;;17.45;4.53;;;;;;;5.07;93.61;100443.81;4953399;29;20110;-56
2021/12/07 14:30:36;;;;;;;11.93;4.70;;;;;;;5.09;93.18;100446.28;4955753;28;20090;-56
2021/12/07 14:33:23;;;;;;;15.82;4.60;;;;;;;5.08;92.50;100444.66;4955564;28;20050;-54
2021/12/07 14:36:12;;;;;;;14.13;4.15;;;;;;;5.05;92.50;100440.56;4956442;28;20043;-48
2021/12/07 14:39:07;;;;;;;12.00;3.88;;;;;;;5.04;92.73;100436.19;4954059;28;20122;-53
2021/12/07 14:41:59;;;;;;;14.13;4.70;;;;;;;5.04;92.83;100433.50;4954717;28;20055;-58
2021/12/07 14:44:49;;;;;;;14.40;4.10;;;;;;;5.05;92.75;100435.16;4967343;28;20482;-57
2021/12/07 14:47:37;;;;;;;13.73;4.60;;;;;;;5.05;93.01;100429.75;4956336;28;20059;-53